METAR Data
IDs: Format: Raw Decoded Include TAF

Data at: 1453 UTC 22 Apr 2021

KMIA 221353Z 34008KT 10SM FEW080 SCT130 BKN250 25/15 A3006 RMK AO2 SLP181 T02500150 $
KMIA 221253Z 33008KT 10SM FEW060 OVC080 23/14 A3006 RMK AO2 SLP179 T02330139 $
KMIA 221153Z 36006KT 10SM FEW060 OVC080 23/14 A3004 RMK AO2 SLP172 70013 T02280144 10239 20228 51017 $
KMIA 221053Z VRB05KT 10SM FEW060 OVC080 23/16 A3003 RMK AO2 SLP168 T02280156 $
KMIA 220953Z 33005KT 10SM BKN070 OVC080 23/18 A3001 RMK AO2 SLP162 T02280178 $
KMIA 220853Z 33007KT 10SM BKN080 BKN100 23/18 A2999 RMK AO2 SLP156 T02280183 55000 $
KMIA 220753Z 31004KT 10SM BKN070 BKN100 23/19 A2999 RMK AO2 SLP154 T02330189 $
KMIA 220653Z VRB03KT 10SM FEW065 BKN080 BKN100 24/20 A2999 RMK AO2 SLP154 T02390200 $
KMIA 220553Z 33004KT 10SM FEW025 BKN090 OVC180 24/22 A2999 RMK AO2 SLP156 T02390217 10261 20239 58007 $
KMIA 220453Z 28004KT 10SM FEW140 SCT190 BKN250 24/22 A3001 RMK AO2 SLP162 T02440222 403110244 $
KMIA 220353Z 29003KT 10SM BKN190 BKN250 25/22 A3002 RMK AO2 SLP164 T02500222 $
KMIA 220253Z 00000KT 10SM FEW160 SCT250 25/22 A3001 RMK AO2 SLP163 T02500222 51011 $
KMIA 220153Z 26005KT 10SM BKN180 OVC250 26/22 A3001 RMK AO2 SLP161 T02560222 $
KMIA 220053Z 29003KT 10SM OVC250 26/22 A2999 RMK AO2 SLP156 T02610217 $
KMIA 212353Z VRB04KT 10SM FEW050 SCT150 BKN250 26/22 A2998 RMK AO2 SLP152 60013 T02610222 10306 20261 53005 $
KMIA 212253Z 29005KT 10SM FEW030 FEW080 SCT180 BKN250 27/22 A2997 RMK AO2 SLP149 T02670222 $
KMIA 212153Z 30009KT 8SM SCT031 SCT080 BKN100 BKN250 27/22 A2996 RMK AO2 LTG DSNT SE RAB2055E06 SLP147 CB DSNT E-SE MOV E P0001 T02670222 $
KMIA 212103Z 36004KT 8SM -RA SCT027 BKN060 BKN085 OVC250 27/23 A2996 RMK AO2 RAB2055 CB DSNT NE-SE MOV E P0000 T02670228
KMIA 212053Z 31005KT 8SM VCTS SCT045 BKN060 BKN090 OVC250 27/23 A2997 RMK AO2 RAB17E50 TSE42 SLP147 CB DSNT NE-SE MOV E P0008 60012 T02670233 55001
KMIA 212048Z VRB04KT 8SM VCTS -RA SCT046 BKN060 BKN090 OVC250 27/23 A2996 RMK AO2 RAB17 TSE42 CB DSNT NE-SE MOV E P0008
KMIA 211953Z 31006KT 8SM SCT040 SCT055 SCT110 OVC250 28/22 A2996 RMK AO2 RAE13 SLP145 P0004 T02830222
KMIA 211853Z 28007G16KT 8SM -RA SCT035CB SCT070 BKN100 OVC250 28/22 A2997 RMK AO2 LTG DSNT NE RAB48 SLP148 CB W-N-NE MOV E P0000 T02780222
KMIA 211753Z COR 25010KT 10SM FEW035 FEW100 SCT170 OVC240 31/21 A2999 RMK AO2 CB DSNT NW MOV E SLP155 T03060211 10311 20256 58007
KMIA 211653Z 27006KT 10SM FEW034 FEW110 SCT170 OVC250 30/21 A3001 RMK AO2 SLP161 T03000211
KMIA 211553Z 22006KT 10SM FEW030 BKN180 BKN210 29/21 A3001 RMK AO2 SLP161 CB DSNT SE-S AND W-NW MOV E T02890211
KMIA 211453Z 27005KT 10SM SCT027 29/21 A3001 RMK AO2 SLP162 T02890211 50006
KMIA 211353Z 31006KT 10SM BKN025 OVC035 27/21 A3002 RMK AO2 SLP164 T02670206
KMIA 211253Z VRB03KT 10SM BKN022 OVC060 26/21 A3000 RMK AO2 SLP159 T02610206
KMIA 211229Z 32003KT 10SM BKN022 OVC032 26/21 A3000 RMK AO2 T02610206
KMIA 211205Z 00000KT 10SM SCT023 BKN032 26/21 A3000 RMK AO2 T02560211 $
KMIA 211153Z 00000KT 10SM BKN021 OVC035 26/21 A2999 RMK AO2 SLP156 CB DSNT NE-SE-S MOV E 60000 T02560211 10261 20250 53008 $
KMIA 211053Z 00000KT 10SM FEW015 BKN025 OVC050 25/22 A2997 RMK AO2 LTG DSNT E AND SE TSE18 SLP150 CB DSNT NE-SE MOV E T02500222 $
KMIA 211018Z 32004KT 10SM SCT011 BKN018 OVC032 25/24 A2997 RMK AO2 LTG DSNT NE-S TSE18 OCNL LTGIC DSNT NE CB DSNT NE-SE-S MOV E T02500239 $
KMIA 210953Z 27004KT 6SM TS BR BKN011 OVC027CB 26/24 A2997 RMK AO2 LTG DSNT E AND SE TSB0859E14E26B30 SLP149 OCNL LTGIC NE-SE TS NE-SE MOV NE T02560239 $
KMIA 210950Z 31003KT 6SM TS BR BKN014 BKN027CB OVC036 26/24 A2997 RMK AO2 LTG DSNT E AND SE TSB0859E14E26B30 OCNL LTGIC NE-SE TS NE-SE MOV NE $
KMIA 210931Z 28004KT 6SM TS BR SCT014 BKN027CB OVC036 26/24 A2996 RMK AO2 LTG DSNT E TSB0859E14E26B30 OCNL LTGIC NE-SE-S TS NE-SE-S MOV NE T02560239 $
KMIA 210920Z 25004KT 5SM BR BKN025CB BKN036 BKN044 26/23 A2996 RMK AO2 TSB0859E14 CB NE-SE-S MOV NE T02560233 $
KMIA 210901Z 19004KT 5SM TS BR FEW014 BKN026CB OVC070 26/23 A2996 RMK AO2 TSB0859 OCNL LTGIC NE-SE TS NE-SE MOV NE CB DSNT NW MOV NE T02560233 $
KMIA 210853Z 19007KT 5SM BR FEW014 BKN026CB OVC040 26/23 A2996 RMK AO2 RAB47E51 SLP146 CB OHD-NE-SE-S AND NW MOV NE P0000 60000 T02560233 50000 $
KMIA 210848Z 20005KT 5SM -RA BR BKN026CB BKN038 OVC050 26/23 A2996 RMK AO2 RAB47 CB E-S AND NW MOV NE P0000 $
KMIA 210753Z 23003KT 9SM SCT025 OVC036 26/24 A2996 RMK AO2 SLP146 T02560239 $
KMIA 210653Z 00000KT 10SM BKN035 OVC044 26/24 A2996 RMK AO2 SLP146 T02560239 $
KMIA 210553Z 23004KT 7SM SCT026 OVC031 26/24 A2998 RMK AO2 SLP152 T02560239 10272 20256 50000 $
KMIA 210453Z 23004KT 10SM BKN032 OVC250 26/24 A2999 RMK AO2 SLP157 T02610239 402940211 $
KMIA 210405Z 18004KT 10SM SCT026 OVC250 26/24 A2998 RMK AO2 T02610239 $
KMIA 210353Z 17003KT 8SM BKN026 OVC250 26/24 A2999 RMK AO2 SLP154 T02610239 $
KMIA 210344Z 17003KT 8SM BKN026 OVC250 26/24 A2999 RMK AO2 T02610239 $